sensor_id;sensor_type;location;lat;lon;timestamp;temperature;humidity
9193;DHT22;4631;49.296;10.560;2023-08-01T00:01:10;17.20;99.90
9193;DHT22;4631;49.296;10.560;2023-08-01T00:03:37;17.20;99.90
9193;DHT22;4631;49.296;10.560;2023-08-01T00:06:03;17.20;99.90
9193;DHT22;4631;49.296;10.560;2023-08-01T00:08:30;17.20;99.90
9193;DHT22;4631;49.296;10.560;2023-08-01T00:10:57;17.10;99.90
9193;DHT22;4631;49.296;10.560;2023-08-01T00:13:23;17.20;99.90
9193;DHT22;4631;49.296;10.560;2023-08-01T00:15:51;17.20;99.90
9193;DHT22;4631;49.296;10.560;2023-08-01T00:18:18;17.10;99.90
9193;DHT22;4631;49.296;10.560;2023-08-01T00:20:44;17.10;99.90
9193;DHT22;4631;49.296;10.560;2023-08-01T00:23:11;17.10;99.90
9193;DHT22;4631;49.296;10.560;2023-08-01T00:25:37;17.00;99.90
9193;DHT22;4631;49.296;10.560;2023-08-01T00:28:04;17.10;99.90
9193;DHT22;4631;49.296;10.560;2023-08-01T00:30:31;17.10;99.90
9193;DHT22;4631;49.296;10.560;2023-08-01T00:32:59;17.10;99.90
9193;DHT22;4631;49.296;10.560;2023-08-01T00:35:25;17.10;99.90
9193;DHT22;4631;49.296;10.560;2023-08-01T00:37:52;17.10;99.90
9193;DHT22;4631;49.296;10.560;2023-08-01T00:40:19;17.10;99.90
9193;DHT22;4631;49.296;10.560;2023-08-01T00:42:46;17.10;99.90
9193;DHT22;4631;49.296;10.560;2023-08-01T00:45:12;17.10;99.90
9193;DHT22;4631;49.296;10.560;2023-08-01T00:47:41;17.10;99.90
9193;DHT22;4631;49.296;10.560;2023-08-01T00:50:09;17.10;99.90
9193;DHT22;4631;49.296;10.560;2023-08-01T00:52:36;17.00;99.90
9193;DHT22;4631;49.296;10.560;2023-08-01T00:55:02;17.00;99.90
9193;DHT22;4631;49.296;10.560;2023-08-01T00:57:31;17.00;99.90
9193;DHT22;4631;49.296;10.560;2023-08-01T00:59:58;17.00;99.90
9193;DHT22;4631;49.296;10.560;2023-08-01T01:02:25;17.00;99.90
9193;DHT22;4631;49.296;10.560;2023-08-01T01:04:51;17.00;99.90
9193;DHT22;4631;49.296;10.560;2023-08-01T01:07:19;17.00;99.90
9193;DHT22;4631;49.296;10.560;2023-08-01T01:09:47;17.00;99.90
9193;DHT22;4631;49.296;10.560;2023-08-01T01:12:14;16.90;99.90
9193;DHT22;4631;49.296;10.560;2023-08-01T01:14:40;16.90;99.90
9193;DHT22;4631;49.296;10.560;2023-08-01T01:17:07;16.90;99.90
9193;DHT22;4631;49.296;10.560;2023-08-01T01:19:34;16.90;99.90
9193;DHT22;4631;49.296;10.560;2023-08-01T01:22:02;16.90;99.90
9193;DHT22;4631;49.296;10.560;2023-08-01T01:24:30;16.90;99.90
9193;DHT22;4631;49.296;10.560;2023-08-01T01:26:58;16.90;99.90
9193;DHT22;4631;49.296;10.560;2023-08-01T01:29:25;16.90;99.90
9193;DHT22;4631;49.296;10.560;2023-08-01T01:31:52;16.90;99.90
9193;DHT22;4631;49.296;10.560;2023-08-01T01:34:19;16.80;99.90
9193;DHT22;4631;49.296;10.560;2023-08-01T01:36:46;16.80;99.90
9193;DHT22;4631;49.296;10.560;2023-08-01T01:39:14;16.80;99.90
9193;DHT22;4631;49.296;10.560;2023-08-01T01:41:40;16.80;99.90
9193;DHT22;4631;49.296;10.560;2023-08-01T01:44:07;16.80;99.90
9193;DHT22;4631;49.296;10.560;2023-08-01T01:46:34;16.90;99.90
9193;DHT22;4631;49.296;10.560;2023-08-01T01:49:00;16.90;99.90
9193;DHT22;4631;49.296;10.560;2023-08-01T01:51:27;16.80;99.90
9193;DHT22;4631;49.296;10.560;2023-08-01T01:53:54;16.80;99.90
9193;DHT22;4631;49.296;10.560;2023-08-01T01:56:22;16.80;99.90
9193;DHT22;4631;49.296;10.560;2023-08-01T01:58:49;16.80;99.90
9193;DHT22;4631;49.296;10.560;2023-08-01T02:01:15;16.80;99.90
9193;DHT22;4631;49.296;10.560;2023-08-01T02:03:42;16.80;99.90
9193;DHT22;4631;49.296;10.560;2023-08-01T02:06:08;16.80;99.90
9193;DHT22;4631;49.296;10.560;2023-08-01T02:08:35;16.80;99.90
9193;DHT22;4631;49.296;10.560;2023-08-01T02:11:02;16.80;99.90
9193;DHT22;4631;49.296;10.560;2023-08-01T02:13:31;16.80;99.90
9193;DHT22;4631;49.296;10.560;2023-08-01T02:15:57;16.70;99.90
9193;DHT22;4631;49.296;10.560;2023-08-01T02:18:24;16.70;99.90
9193;DHT22;4631;49.296;10.560;2023-08-01T02:20:51;16.70;99.90
9193;DHT22;4631;49.296;10.560;2023-08-01T02:23:17;16.70;99.90
9193;DHT22;4631;49.296;10.560;2023-08-01T02:25:44;16.70;99.90
9193;DHT22;4631;49.296;10.560;2023-08-01T02:28:10;16.70;99.90
9193;DHT22;4631;49.296;10.560;2023-08-01T02:30:39;16.70;99.90
9193;DHT22;4631;49.296;10.560;2023-08-01T02:33:05;16.70;99.90
9193;DHT22;4631;49.296;10.560;2023-08-01T02:35:32;16.60;99.90
9193;DHT22;4631;49.296;10.560;2023-08-01T02:37:58;16.60;99.90
9193;DHT22;4631;49.296;10.560;2023-08-01T02:40:25;16.60;99.90
9193;DHT22;4631;49.296;10.560;2023-08-01T02:42:52;16.60;99.90
9193;DHT22;4631;49.296;10.560;2023-08-01T02:45:18;16.60;99.90
9193;DHT22;4631;49.296;10.560;2023-08-01T02:47:46;16.60;99.90
9193;DHT22;4631;49.296;10.560;2023-08-01T02:50:13;16.60;99.90
9193;DHT22;4631;49.296;10.560;2023-08-01T02:52:40;16.70;99.90
9193;DHT22;4631;49.296;10.560;2023-08-01T02:55:07;16.60;99.90
9193;DHT22;4631;49.296;10.560;2023-08-01T02:57:33;16.60;99.90
9193;DHT22;4631;49.296;10.560;2023-08-01T03:00:00;16.60;99.90
9193;DHT22;4631;49.296;10.560;2023-08-01T03:02:30;16.60;99.90
9193;DHT22;4631;49.296;10.560;2023-08-01T03:04:58;16.60;99.90
9193;DHT22;4631;49.296;10.560;2023-08-01T03:07:24;16.60;99.90
9193;DHT22;4631;49.296;10.560;2023-08-01T03:09:51;16.60;99.90
9193;DHT22;4631;49.296;10.560;2023-08-01T03:12:17;16.60;99.90
9193;DHT22;4631;49.296;10.560;2023-08-01T03:14:44;16.60;99.90
9193;DHT22;4631;49.296;10.560;2023-08-01T03:17:13;16.50;99.90
9193;DHT22;4631;49.296;10.560;2023-08-01T03:19:39;16.60;99.90
9193;DHT22;4631;49.296;10.560;2023-08-01T03:22:07;16.60;99.90
9193;DHT22;4631;49.296;10.560;2023-08-01T03:24:34;16.60;99.90
9193;DHT22;4631;49.296;10.560;2023-08-01T03:27:00;16.60;99.90
9193;DHT22;4631;49.296;10.560;2023-08-01T03:29:27;16.60;99.90
9193;DHT22;4631;49.296;10.560;2023-08-01T03:31:54;16.60;99.90
9193;DHT22;4631;49.296;10.560;2023-08-01T03:34:20;16.60;99.90
9193;DHT22;4631;49.296;10.560;2023-08-01T03:36:47;16.60;99.90
9193;DHT22;4631;49.296;10.560;2023-08-01T03:39:15;16.60;99.90
9193;DHT22;4631;49.296;10.560;2023-08-01T03:41:41;16.50;99.90
9193;DHT22;4631;49.296;10.560;2023-08-01T03:44:08;16.50;99.90
9193;DHT22;4631;49.296;10.560;2023-08-01T03:46:34;16.50;99.90
9193;DHT22;4631;49.296;10.560;2023-08-01T03:49:01;16.50;99.90
9193;DHT22;4631;49.296;10.560;2023-08-01T03:51:28;16.50;99.90
9193;DHT22;4631;49.296;10.560;2023-08-01T03:53:54;16.50;99.90
9193;DHT22;4631;49.296;10.560;2023-08-01T03:56:22;16.50;99.90
9193;DHT22;4631;49.296;10.560;2023-08-01T03:58:49;16.50;99.90
9193;DHT22;4631;49.296;10.560;2023-08-01T04:01:15;16.50;99.90
9193;DHT22;4631;49.296;10.560;2023-08-01T04:03:42;16.50;99.90
9193;DHT22;4631;49.296;10.560;2023-08-01T04:06:09;16.50;99.90
9193;DHT22;4631;49.296;10.560;2023-08-01T04:08:36;16.50;99.90
9193;DHT22;4631;49.296;10.560;2023-08-01T04:11:02;16.40;99.90
9193;DHT22;4631;49.296;10.560;2023-08-01T04:13:30;16.40;99.90
9193;DHT22;4631;49.296;10.560;2023-08-01T04:15:57;16.40;99.90
9193;DHT22;4631;49.296;10.560;2023-08-01T04:18:23;16.40;99.90
9193;DHT22;4631;49.296;10.560;2023-08-01T04:20:50;16.40;99.90
9193;DHT22;4631;49.296;10.560;2023-08-01T04:23:17;16.40;99.90
9193;DHT22;4631;49.296;10.560;2023-08-01T04:25:43;16.40;99.90
9193;DHT22;4631;49.296;10.560;2023-08-01T04:28:10;16.50;99.90
9193;DHT22;4631;49.296;10.560;2023-08-01T04:30:38;16.50;99.90
9193;DHT22;4631;49.296;10.560;2023-08-01T04:33:05;16.50;99.90
9193;DHT22;4631;49.296;10.560;2023-08-01T04:35:31;16.50;99.90
9193;DHT22;4631;49.296;10.560;2023-08-01T04:37:58;16.50;99.90
9193;DHT22;4631;49.296;10.560;2023-08-01T04:40:24;16.50;99.90
9193;DHT22;4631;49.296;10.560;2023-08-01T04:42:51;16.50;99.90
9193;DHT22;4631;49.296;10.560;2023-08-01T04:45:18;16.50;99.90
9193;DHT22;4631;49.296;10.560;2023-08-01T04:47:45;16.50;99.90
9193;DHT22;4631;49.296;10.560;2023-08-01T04:50:12;16.50;99.90
9193;DHT22;4631;49.296;10.560;2023-08-01T04:52:39;16.50;99.90
9193;DHT22;4631;49.296;10.560;2023-08-01T04:55:06;16.50;99.90
9193;DHT22;4631;49.296;10.560;2023-08-01T04:57:33;16.50;99.90
9193;DHT22;4631;49.296;10.560;2023-08-01T04:59:59;16.50;99.90
9193;DHT22;4631;49.296;10.560;2023-08-01T05:02:26;16.50;99.90
9193;DHT22;4631;49.296;10.560;2023-08-01T05:04:54;16.50;99.90
9193;DHT22;4631;49.296;10.560;2023-08-01T05:07:20;16.50;99.90
9193;DHT22;4631;49.296;10.560;2023-08-01T05:09:47;16.50;99.90
9193;DHT22;4631;49.296;10.560;2023-08-01T05:12:14;16.60;99.90
9193;DHT22;4631;49.296;10.560;2023-08-01T05:14:40;16.60;99.90
9193;DHT22;4631;49.296;10.560;2023-08-01T05:17:07;16.60;99.90
9193;DHT22;4631;49.296;10.560;2023-08-01T05:19:33;16.60;99.90
9193;DHT22;4631;49.296;10.560;2023-08-01T05:22:02;16.60;99.90
9193;DHT22;4631;49.296;10.560;2023-08-01T05:24:28;16.60;99.90
9193;DHT22;4631;49.296;10.560;2023-08-01T05:26:55;16.70;99.90
9193;DHT22;4631;49.296;10.560;2023-08-01T05:29:21;16.70;99.90
9193;DHT22;4631;49.296;10.560;2023-08-01T05:31:48;16.70;99.90
9193;DHT22;4631;49.296;10.560;2023-08-01T05:34:15;16.70;99.90
9193;DHT22;4631;49.296;10.560;2023-08-01T05:36:41;16.70;99.90
9193;DHT22;4631;49.296;10.560;2023-08-01T05:39:09;16.70;99.90
9193;DHT22;4631;49.296;10.560;2023-08-01T05:41:36;16.70;99.90
9193;DHT22;4631;49.296;10.560;2023-08-01T05:44:03;16.80;99.90
9193;DHT22;4631;49.296;10.560;2023-08-01T05:46:30;16.80;99.90
9193;DHT22;4631;49.296;10.560;2023-08-01T05:48:58;16.70;99.90
9193;DHT22;4631;49.296;10.560;2023-08-01T05:51:26;16.80;99.90
9193;DHT22;4631;49.296;10.560;2023-08-01T05:53:53;16.80;99.90
9193;DHT22;4631;49.296;10.560;2023-08-01T05:56:21;16.80;99.90
9193;DHT22;4631;49.296;10.560;2023-08-01T05:58:47;16.80;99.90
9193;DHT22;4631;49.296;10.560;2023-08-01T06:01:15;16.80;99.90
9193;DHT22;4631;49.296;10.560;2023-08-01T06:03:42;16.90;99.90
9193;DHT22;4631;49.296;10.560;2023-08-01T06:06:08;16.80;99.90
9193;DHT22;4631;49.296;10.560;2023-08-01T06:08:35;16.90;99.90
9193;DHT22;4631;49.296;10.560;2023-08-01T06:11:01;17.00;99.90
9193;DHT22;4631;49.296;10.560;2023-08-01T06:13:30;16.90;99.90
9193;DHT22;4631;49.296;10.560;2023-08-01T06:15:56;16.90;99.90
9193;DHT22;4631;49.296;10.560;2023-08-01T06:18:23;16.90;99.90
9193;DHT22;4631;49.296;10.560;2023-08-01T06:20:49;16.90;99.90
9193;DHT22;4631;49.296;10.560;2023-08-01T06:23:16;16.90;99.90
9193;DHT22;4631;49.296;10.560;2023-08-01T06:25:42;16.90;99.90
9193;DHT22;4631;49.296;10.560;2023-08-01T06:28:09;16.80;99.90
9193;DHT22;4631;49.296;10.560;2023-08-01T06:30:37;16.90;99.90
9193;DHT22;4631;49.296;10.560;2023-08-01T06:33:04;16.90;99.90
9193;DHT22;4631;49.296;10.560;2023-08-01T06:35:30;16.90;99.90
9193;DHT22;4631;49.296;10.560;2023-08-01T06:37:57;16.90;99.90
9193;DHT22;4631;49.296;10.560;2023-08-01T06:40:24;16.90;99.90
9193;DHT22;4631;49.296;10.560;2023-08-01T06:42:50;16.90;99.90
9193;DHT22;4631;49.296;10.560;2023-08-01T06:45:17;16.90;99.90
9193;DHT22;4631;49.296;10.560;2023-08-01T06:47:45;16.80;99.90
9193;DHT22;4631;49.296;10.560;2023-08-01T06:50:18;16.90;99.90
9193;DHT22;4631;49.296;10.560;2023-08-01T06:52:45;16.90;99.90
9193;DHT22;4631;49.296;10.560;2023-08-01T06:55:14;16.90;99.90
9193;DHT22;4631;49.296;10.560;2023-08-01T06:57:40;16.90;99.90
9193;DHT22;4631;49.296;10.560;2023-08-01T07:00:07;16.90;99.90
9193;DHT22;4631;49.296;10.560;2023-08-01T07:02:34;17.00;99.90
9193;DHT22;4631;49.296;10.560;2023-08-01T07:05:02;17.00;99.90
9193;DHT22;4631;49.296;10.560;2023-08-01T07:07:30;17.00;99.90
9193;DHT22;4631;49.296;10.560;2023-08-01T07:09:56;17.00;99.90
9193;DHT22;4631;49.296;10.560;2023-08-01T07:12:23;17.00;99.90
9193;DHT22;4631;49.296;10.560;2023-08-01T07:14:50;17.00;99.90
9193;DHT22;4631;49.296;10.560;2023-08-01T07:17:16;17.00;99.90
9193;DHT22;4631;49.296;10.560;2023-08-01T07:19:43;17.10;99.90
9193;DHT22;4631;49.296;10.560;2023-08-01T07:22:11;17.00;99.90
9193;DHT22;4631;49.296;10.560;2023-08-01T07:24:37;17.10;99.90
9193;DHT22;4631;49.296;10.560;2023-08-01T07:27:04;17.10;99.90
9193;DHT22;4631;49.296;10.560;2023-08-01T07:29:31;17.10;99.90
9193;DHT22;4631;49.296;10.560;2023-08-01T07:31:58;17.00;99.90
9193;DHT22;4631;49.296;10.560;2023-08-01T07:34:24;17.00;99.90
9193;DHT22;4631;49.296;10.560;2023-08-01T07:36:51;17.00;99.90
9193;DHT22;4631;49.296;10.560;2023-08-01T07:39:19;17.00;99.90
9193;DHT22;4631;49.296;10.560;2023-08-01T07:41:45;17.00;99.90
9193;DHT22;4631;49.296;10.560;2023-08-01T07:44:12;17.00;99.90
9193;DHT22;4631;49.296;10.560;2023-08-01T07:46:39;16.90;99.90
9193;DHT22;4631;49.296;10.560;2023-08-01T07:49:07;16.90;99.90
9193;DHT22;4631;49.296;10.560;2023-08-01T07:51:34;16.90;99.90
9193;DHT22;4631;49.296;10.560;2023-08-01T07:54:02;16.90;99.90
9193;DHT22;4631;49.296;10.560;2023-08-01T07:56:30;16.90;99.90
9193;DHT22;4631;49.296;10.560;2023-08-01T07:58:57;16.90;99.90
9193;DHT22;4631;49.296;10.560;2023-08-01T08:01:23;16.80;99.90
9193;DHT22;4631;49.296;10.560;2023-08-01T08:03:51;16.70;99.90
9193;DHT22;4631;49.296;10.560;2023-08-01T08:06:18;16.70;99.90
9193;DHT22;4631;49.296;10.560;2023-08-01T08:08:46;16.70;99.90
9193;DHT22;4631;49.296;10.560;2023-08-01T08:11:13;16.70;99.90
9193;DHT22;4631;49.296;10.560;2023-08-01T08:13:42;16.60;99.90
9193;DHT22;4631;49.296;10.560;2023-08-01T08:16:09;16.50;99.90
9193;DHT22;4631;49.296;10.560;2023-08-01T08:18:35;16.50;99.90
9193;DHT22;4631;49.296;10.560;2023-08-01T08:21:02;16.50;99.90
9193;DHT22;4631;49.296;10.560;2023-08-01T08:23:29;16.40;99.90
9193;DHT22;4631;49.296;10.560;2023-08-01T08:25:55;16.40;99.90
9193;DHT22;4631;49.296;10.560;2023-08-01T08:28:27;16.40;99.90
9193;DHT22;4631;49.296;10.560;2023-08-01T08:30:59;16.30;99.90
9193;DHT22;4631;49.296;10.560;2023-08-01T08:33:26;16.30;99.90
9193;DHT22;4631;49.296;10.560;2023-08-01T08:35:53;16.30;99.90
9193;DHT22;4631;49.296;10.560;2023-08-01T08:38:20;16.30;99.90
9193;DHT22;4631;49.296;10.560;2023-08-01T08:40:50;16.30;99.90
9193;DHT22;4631;49.296;10.560;2023-08-01T08:43:18;16.20;99.90
9193;DHT22;4631;49.296;10.560;2023-08-01T08:45:56;16.20;99.90
9193;DHT22;4631;49.296;10.560;2023-08-01T08:48:24;16.20;99.90
9193;DHT22;4631;49.296;10.560;2023-08-01T08:50:59;16.30;99.90
9193;DHT22;4631;49.296;10.560;2023-08-01T08:53:26;16.30;99.90
9193;DHT22;4631;49.296;10.560;2023-08-01T08:55:54;16.30;99.90
9193;DHT22;4631;49.296;10.560;2023-08-01T08:58:20;16.30;99.90
9193;DHT22;4631;49.296;10.560;2023-08-01T09:00:50;16.40;99.90
9193;DHT22;4631;49.296;10.560;2023-08-01T09:03:17;16.40;99.90
9193;DHT22;4631;49.296;10.560;2023-08-01T09:05:47;16.40;99.90
9193;DHT22;4631;49.296;10.560;2023-08-01T09:08:15;16.50;99.90
9193;DHT22;4631;49.296;10.560;2023-08-01T09:10:44;16.60;99.90
9193;DHT22;4631;49.296;10.560;2023-08-01T09:13:15;16.60;99.90
9193;DHT22;4631;49.296;10.560;2023-08-01T09:15:42;16.60;99.90
9193;DHT22;4631;49.296;10.560;2023-08-01T09:18:09;16.60;99.90
9193;DHT22;4631;49.296;10.560;2023-08-01T09:20:39;16.70;99.90
9193;DHT22;4631;49.296;10.560;2023-08-01T09:23:09;16.70;99.90
9193;DHT22;4631;49.296;10.560;2023-08-01T09:25:36;16.70;99.90
9193;DHT22;4631;49.296;10.560;2023-08-01T09:28:03;16.70;99.90
9193;DHT22;4631;49.296;10.560;2023-08-01T09:30:45;16.60;99.90
9193;DHT22;4631;49.296;10.560;2023-08-01T09:33:11;16.60;99.90
9193;DHT22;4631;49.296;10.560;2023-08-01T09:35:38;16.60;99.90
9193;DHT22;4631;49.296;10.560;2023-08-01T09:38:05;16.60;99.90
9193;DHT22;4631;49.296;10.560;2023-08-01T09:40:37;16.60;99.90
9193;DHT22;4631;49.296;10.560;2023-08-01T09:43:04;16.60;99.90
9193;DHT22;4631;49.296;10.560;2023-08-01T09:45:30;16.70;99.90
9193;DHT22;4631;49.296;10.560;2023-08-01T09:47:57;16.70;99.90
9193;DHT22;4631;49.296;10.560;2023-08-01T09:50:23;16.70;99.90
9193;DHT22;4631;49.296;10.560;2023-08-01T09:52:50;16.80;99.90
9193;DHT22;4631;49.296;10.560;2023-08-01T09:55:19;16.80;99.90
9193;DHT22;4631;49.296;10.560;2023-08-01T09:57:49;16.90;99.90
9193;DHT22;4631;49.296;10.560;2023-08-01T10:00:17;17.00;99.90
9193;DHT22;4631;49.296;10.560;2023-08-01T10:02:43;17.00;99.90
9193;DHT22;4631;49.296;10.560;2023-08-01T10:05:10;17.00;99.90
9193;DHT22;4631;49.296;10.560;2023-08-01T10:07:38;17.00;99.90
9193;DHT22;4631;49.296;10.560;2023-08-01T10:10:05;17.00;99.90
9193;DHT22;4631;49.296;10.560;2023-08-01T10:12:32;16.90;99.90
9193;DHT22;4631;49.296;10.560;2023-08-01T10:15:01;17.00;99.90
9193;DHT22;4631;49.296;10.560;2023-08-01T10:17:29;16.90;99.90
9193;DHT22;4631;49.296;10.560;2023-08-01T10:19:57;16.90;99.90
9193;DHT22;4631;49.296;10.560;2023-08-01T10:22:24;17.00;99.90
9193;DHT22;4631;49.296;10.560;2023-08-01T10:24:51;16.90;99.90
9193;DHT22;4631;49.296;10.560;2023-08-01T10:27:19;16.90;99.90
9193;DHT22;4631;49.296;10.560;2023-08-01T10:29:55;16.90;99.90
9193;DHT22;4631;49.296;10.560;2023-08-01T10:32:28;17.00;99.90
9193;DHT22;4631;49.296;10.560;2023-08-01T10:34:55;17.10;99.90
9193;DHT22;4631;49.296;10.560;2023-08-01T10:37:21;17.10;99.90
9193;DHT22;4631;49.296;10.560;2023-08-01T10:39:55;17.20;99.90
9193;DHT22;4631;49.296;10.560;2023-08-01T10:42:22;17.20;99.90
9193;DHT22;4631;49.296;10.560;2023-08-01T10:44:48;17.20;99.90
9193;DHT22;4631;49.296;10.560;2023-08-01T10:47:15;17.30;99.90
9193;DHT22;4631;49.296;10.560;2023-08-01T10:49:52;17.30;99.90
9193;DHT22;4631;49.296;10.560;2023-08-01T10:52:19;17.40;99.90
9193;DHT22;4631;49.296;10.560;2023-08-01T10:54:55;17.50;99.90
9193;DHT22;4631;49.296;10.560;2023-08-01T10:57:22;17.70;99.90
9193;DHT22;4631;49.296;10.560;2023-08-01T10:59:49;17.80;99.90
9193;DHT22;4631;49.296;10.560;2023-08-01T11:02:19;17.90;99.90
9193;DHT22;4631;49.296;10.560;2023-08-01T11:04:55;18.00;99.90
9193;DHT22;4631;49.296;10.560;2023-08-01T11:07:22;18.10;99.90
9193;DHT22;4631;49.296;10.560;2023-08-01T11:09:48;18.10;99.90
9193;DHT22;4631;49.296;10.560;2023-08-01T11:12:15;18.10;99.90
9193;DHT22;4631;49.296;10.560;2023-08-01T11:14:42;18.10;99.90
9193;DHT22;4631;49.296;10.560;2023-08-01T11:17:08;18.10;99.90
9193;DHT22;4631;49.296;10.560;2023-08-01T11:19:35;18.10;99.90
9193;DHT22;4631;49.296;10.560;2023-08-01T11:22:08;18.10;99.90
9193;DHT22;4631;49.296;10.560;2023-08-01T11:24:35;18.20;99.90
9193;DHT22;4631;49.296;10.560;2023-08-01T11:27:02;18.30;99.90
9193;DHT22;4631;49.296;10.560;2023-08-01T11:29:28;18.40;99.90
9193;DHT22;4631;49.296;10.560;2023-08-01T11:31:55;18.50;99.90
9193;DHT22;4631;49.296;10.560;2023-08-01T11:34:23;18.50;99.90
9193;DHT22;4631;49.296;10.560;2023-08-01T11:36:49;18.50;99.90
9193;DHT22;4631;49.296;10.560;2023-08-01T11:39:17;18.60;99.90
9193;DHT22;4631;49.296;10.560;2023-08-01T11:41:44;18.70;99.90
9193;DHT22;4631;49.296;10.560;2023-08-01T11:44:11;18.70;99.90
9193;DHT22;4631;49.296;10.560;2023-08-01T11:46:38;18.70;99.90
9193;DHT22;4631;49.296;10.560;2023-08-01T11:49:05;18.80;99.90
9193;DHT22;4631;49.296;10.560;2023-08-01T11:51:38;18.90;99.90
9193;DHT22;4631;49.296;10.560;2023-08-01T11:54:05;19.10;99.90
9193;DHT22;4631;49.296;10.560;2023-08-01T11:56:34;19.30;99.90
9193;DHT22;4631;49.296;10.560;2023-08-01T11:59:07;19.60;99.90
9193;DHT22;4631;49.296;10.560;2023-08-01T12:01:37;19.80;99.90
9193;DHT22;4631;49.296;10.560;2023-08-01T12:04:04;20.10;99.90
9193;DHT22;4631;49.296;10.560;2023-08-01T12:06:31;20.20;99.90
9193;DHT22;4631;49.296;10.560;2023-08-01T12:09:05;20.20;99.90
9193;DHT22;4631;49.296;10.560;2023-08-01T12:11:33;20.10;99.90
9193;DHT22;4631;49.296;10.560;2023-08-01T12:14:00;20.00;99.90
9193;DHT22;4631;49.296;10.560;2023-08-01T12:16:27;19.80;99.90
9193;DHT22;4631;49.296;10.560;2023-08-01T12:18:54;19.80;99.90
9193;DHT22;4631;49.296;10.560;2023-08-01T12:21:21;19.50;99.90
9193;DHT22;4631;49.296;10.560;2023-08-01T12:23:47;19.40;99.90
9193;DHT22;4631;49.296;10.560;2023-08-01T12:26:14;19.30;99.90
9193;DHT22;4631;49.296;10.560;2023-08-01T12:28:42;19.20;99.90
9193;DHT22;4631;49.296;10.560;2023-08-01T12:31:08;19.10;99.90
9193;DHT22;4631;49.296;10.560;2023-08-01T12:33:35;19.00;99.90
9193;DHT22;4631;49.296;10.560;2023-08-01T12:36:02;18.80;99.90
9193;DHT22;4631;49.296;10.560;2023-08-01T12:38:29;18.80;99.90
9193;DHT22;4631;49.296;10.560;2023-08-01T12:40:56;18.60;99.90
9193;DHT22;4631;49.296;10.560;2023-08-01T12:43:22;18.10;99.90
9193;DHT22;4631;49.296;10.560;2023-08-01T12:45:50;17.60;99.90
9193;DHT22;4631;49.296;10.560;2023-08-01T12:48:17;17.10;99.90
9193;DHT22;4631;49.296;10.560;2023-08-01T12:50:44;16.70;99.90
9193;DHT22;4631;49.296;10.560;2023-08-01T12:53:11;16.10;99.90
9193;DHT22;4631;49.296;10.560;2023-08-01T12:55:42;15.80;99.90
9193;DHT22;4631;49.296;10.560;2023-08-01T12:58:08;15.70;99.90
9193;DHT22;4631;49.296;10.560;2023-08-01T13:00:35;15.70;99.90
9193;DHT22;4631;49.296;10.560;2023-08-01T13:03:03;15.80;99.90
9193;DHT22;4631;49.296;10.560;2023-08-01T13:05:30;16.00;99.90
9193;DHT22;4631;49.296;10.560;2023-08-01T13:07:56;16.40;99.90
9193;DHT22;4631;49.296;10.560;2023-08-01T13:10:23;16.60;99.90
9193;DHT22;4631;49.296;10.560;2023-08-01T13:12:50;16.90;99.90
9193;DHT22;4631;49.296;10.560;2023-08-01T13:15:16;17.30;99.90
9193;DHT22;4631;49.296;10.560;2023-08-01T13:17:43;17.80;99.90
9193;DHT22;4631;49.296;10.560;2023-08-01T13:20:11;18.20;99.90
9193;DHT22;4631;49.296;10.560;2023-08-01T13:22:38;18.60;99.90
9193;DHT22;4631;49.296;10.560;2023-08-01T13:25:05;19.00;99.90
9193;DHT22;4631;49.296;10.560;2023-08-01T13:27:33;19.30;99.90
9193;DHT22;4631;49.296;10.560;2023-08-01T13:30:00;19.50;99.90
9193;DHT22;4631;49.296;10.560;2023-08-01T13:32:27;19.80;99.90
9193;DHT22;4631;49.296;10.560;2023-08-01T13:34:53;19.90;99.90
9193;DHT22;4631;49.296;10.560;2023-08-01T13:37:21;20.20;99.90
9193;DHT22;4631;49.296;10.560;2023-08-01T13:39:48;20.30;99.90
9193;DHT22;4631;49.296;10.560;2023-08-01T13:42:14;20.40;99.90
9193;DHT22;4631;49.296;10.560;2023-08-01T13:44:41;20.50;99.90
9193;DHT22;4631;49.296;10.560;2023-08-01T13:47:08;20.30;99.90
9193;DHT22;4631;49.296;10.560;2023-08-01T13:49:34;20.10;99.90
9193;DHT22;4631;49.296;10.560;2023-08-01T13:52:01;19.90;99.90
9193;DHT22;4631;49.296;10.560;2023-08-01T13:54:32;19.60;99.90
9193;DHT22;4631;49.296;10.560;2023-08-01T13:56:58;19.40;99.90
9193;DHT22;4631;49.296;10.560;2023-08-01T13:59:25;19.20;99.90
9193;DHT22;4631;49.296;10.560;2023-08-01T14:01:57;19.10;99.90
9193;DHT22;4631;49.296;10.560;2023-08-01T14:04:24;19.00;99.90
9193;DHT22;4631;49.296;10.560;2023-08-01T14:06:51;19.10;99.90
9193;DHT22;4631;49.296;10.560;2023-08-01T14:09:17;19.20;99.90
9193;DHT22;4631;49.296;10.560;2023-08-01T14:11:45;19.40;99.90
9193;DHT22;4631;49.296;10.560;2023-08-01T14:14:12;19.60;99.90
9193;DHT22;4631;49.296;10.560;2023-08-01T14:16:39;19.90;99.90
9193;DHT22;4631;49.296;10.560;2023-08-01T14:19:05;20.30;99.90
9193;DHT22;4631;49.296;10.560;2023-08-01T14:21:33;20.40;99.90
9193;DHT22;4631;49.296;10.560;2023-08-01T14:24:00;20.50;99.90
9193;DHT22;4631;49.296;10.560;2023-08-01T14:26:26;20.50;99.90
9193;DHT22;4631;49.296;10.560;2023-08-01T14:28:54;20.30;99.90
9193;DHT22;4631;49.296;10.560;2023-08-01T14:31:21;20.20;99.90
9193;DHT22;4631;49.296;10.560;2023-08-01T14:33:48;20.20;99.90
9193;DHT22;4631;49.296;10.560;2023-08-01T14:36:14;20.20;99.90
9193;DHT22;4631;49.296;10.560;2023-08-01T14:38:41;20.10;99.90
9193;DHT22;4631;49.296;10.560;2023-08-01T14:41:08;20.10;99.90
9193;DHT22;4631;49.296;10.560;2023-08-01T14:43:35;20.30;99.90
9193;DHT22;4631;49.296;10.560;2023-08-01T14:46:03;20.40;99.90
9193;DHT22;4631;49.296;10.560;2023-08-01T14:48:30;20.60;99.90
9193;DHT22;4631;49.296;10.560;2023-08-01T14:50:56;20.70;99.90
9193;DHT22;4631;49.296;10.560;2023-08-01T14:53:23;20.80;99.90
9193;DHT22;4631;49.296;10.560;2023-08-01T14:55:59;20.90;99.90
9193;DHT22;4631;49.296;10.560;2023-08-01T14:58:28;21.10;99.90
9193;DHT22;4631;49.296;10.560;2023-08-01T15:00:54;21.50;99.90
9193;DHT22;4631;49.296;10.560;2023-08-01T15:03:22;21.80;99.90
9193;DHT22;4631;49.296;10.560;2023-08-01T15:05:49;22.00;99.90
9193;DHT22;4631;49.296;10.560;2023-08-01T15:08:16;22.00;99.90
9193;DHT22;4631;49.296;10.560;2023-08-01T15:10:42;22.10;99.90
9193;DHT22;4631;49.296;10.560;2023-08-01T15:13:09;22.20;99.90
9193;DHT22;4631;49.296;10.560;2023-08-01T15:15:35;22.30;99.90
9193;DHT22;4631;49.296;10.560;2023-08-01T15:18:02;22.40;99.90
9193;DHT22;4631;49.296;10.560;2023-08-01T15:20:30;22.50;99.90
9193;DHT22;4631;49.296;10.560;2023-08-01T15:23:03;22.50;99.90
9193;DHT22;4631;49.296;10.560;2023-08-01T15:25:30;22.50;99.90
9193;DHT22;4631;49.296;10.560;2023-08-01T15:27:57;22.20;99.90
9193;DHT22;4631;49.296;10.560;2023-08-01T15:30:24;21.90;99.90
9193;DHT22;4631;49.296;10.560;2023-08-01T15:32:50;21.80;99.90
9193;DHT22;4631;49.296;10.560;2023-08-01T15:35:17;21.70;99.90
9193;DHT22;4631;49.296;10.560;2023-08-01T15:37:45;21.70;99.90
9193;DHT22;4631;49.296;10.560;2023-08-01T15:40:12;21.70;99.90
9193;DHT22;4631;49.296;10.560;2023-08-01T15:42:39;21.60;99.90
9193;DHT22;4631;49.296;10.560;2023-08-01T15:45:06;21.80;99.90